sensor_id;sensor_type;location;lat;lon;timestamp;P1;durP1;ratioP1;P2;durP2;ratioP2
54937;SDS011;52756;52.826;6.214;2023-11-18T00:00:34;30.17;;;18.42;;
54937;SDS011;52756;52.826;6.214;2023-11-18T00:02:59;30.15;;;19.38;;
54937;SDS011;52756;52.826;6.214;2023-11-18T00:05:25;28.70;;;18.50;;
54937;SDS011;52756;52.826;6.214;2023-11-18T00:07:50;26.30;;;17.38;;
54937;SDS011;52756;52.826;6.214;2023-11-18T00:10:16;23.33;;;16.42;;
54937;SDS011;52756;52.826;6.214;2023-11-18T00:12:42;20.67;;;14.90;;
54937;SDS011;52756;52.826;6.214;2023-11-18T00:15:08;27.40;;;17.38;;
54937;SDS011;52756;52.826;6.214;2023-11-18T00:17:37;21.85;;;14.85;;
54937;SDS011;52756;52.826;6.214;2023-11-18T00:20:03;20.83;;;14.13;;
54937;SDS011;52756;52.826;6.214;2023-11-18T00:22:34;22.45;;;15.93;;
54937;SDS011;52756;52.826;6.214;2023-11-18T00:25:01;23.50;;;15.10;;
54937;SDS011;52756;52.826;6.214;2023-11-18T00:27:30;21.83;;;14.75;;
54937;SDS011;52756;52.826;6.214;2023-11-18T00:29:56;21.67;;;14.70;;
54937;SDS011;52756;52.826;6.214;2023-11-18T00:32:22;23.50;;;15.38;;
54937;SDS011;52756;52.826;6.214;2023-11-18T00:34:47;25.70;;;17.00;;
54937;SDS011;52756;52.826;6.214;2023-11-18T00:37:13;27.88;;;17.77;;
54937;SDS011;52756;52.826;6.214;2023-11-18T00:39:41;22.52;;;15.63;;
54937;SDS011;52756;52.826;6.214;2023-11-18T01:40:46;25.65;;;16.48;;
54937;SDS011;52756;52.826;6.214;2023-11-18T01:43:11;24.27;;;15.90;;
54937;SDS011;52756;52.826;6.214;2023-11-18T01:45:39;24.33;;;16.08;;
54937;SDS011;52756;52.826;6.214;2023-11-18T01:48:05;37.35;;;18.42;;
54937;SDS011;52756;52.826;6.214;2023-11-18T01:50:34;32.15;;;19.23;;
54937;SDS011;52756;52.826;6.214;2023-11-18T01:53:05;35.15;;;19.73;;
54937;SDS011;52756;52.826;6.214;2023-11-18T01:55:31;32.30;;;19.13;;
54937;SDS011;52756;52.826;6.214;2023-11-18T01:57:59;23.52;;;15.70;;
54937;SDS011;52756;52.826;6.214;2023-11-18T02:00:33;43.92;;;19.73;;
54937;SDS011;52756;52.826;6.214;2023-11-18T02:03:00;25.60;;;16.88;;
54937;SDS011;52756;52.826;6.214;2023-11-18T02:05:27;54.50;;;20.02;;
54937;SDS011;52756;52.826;6.214;2023-11-18T02:07:52;62.17;;;20.92;;
54937;SDS011;52756;52.826;6.214;2023-11-18T02:10:18;33.38;;;19.73;;
54937;SDS011;52756;52.826;6.214;2023-11-18T02:15:13;43.17;;;21.92;;
54937;SDS011;52756;52.826;6.214;2023-11-18T02:17:40;44.75;;;21.73;;
54937;SDS011;52756;52.826;6.214;2023-11-18T02:20:10;43.97;;;21.98;;
54937;SDS011;52756;52.826;6.214;2023-11-18T02:22:43;53.03;;;22.60;;
54937;SDS011;52756;52.826;6.214;2023-11-18T02:25:14;44.42;;;23.80;;
54937;SDS011;52756;52.826;6.214;2023-11-18T02:27:41;45.35;;;24.60;;
54937;SDS011;52756;52.826;6.214;2023-11-18T02:30:08;46.05;;;24.40;;
54937;SDS011;52756;52.826;6.214;2023-11-18T02:38:02;48.13;;;24.38;;
54937;SDS011;52756;52.826;6.214;2023-11-18T02:40:33;44.35;;;23.85;;
54937;SDS011;52756;52.826;6.214;2023-11-18T02:43:01;43.72;;;24.10;;
54937;SDS011;52756;52.826;6.214;2023-11-18T02:45:30;44.15;;;23.88;;
54937;SDS011;52756;52.826;6.214;2023-11-18T02:47:57;52.15;;;26.90;;
54937;SDS011;52756;52.826;6.214;2023-11-18T02:50:23;36.78;;;22.50;;
54937;SDS011;52756;52.826;6.214;2023-11-18T02:52:49;40.65;;;23.50;;
54937;SDS011;52756;52.826;6.214;2023-11-18T02:55:15;43.70;;;25.77;;
54937;SDS011;52756;52.826;6.214;2023-11-18T02:57:41;50.75;;;25.73;;
54937;SDS011;52756;52.826;6.214;2023-11-18T03:00:07;45.00;;;24.38;;
54937;SDS011;52756;52.826;6.214;2023-11-18T03:02:41;43.72;;;25.83;;
54937;SDS011;52756;52.826;6.214;2023-11-18T03:05:07;48.03;;;26.92;;
54937;SDS011;52756;52.826;6.214;2023-11-18T03:07:36;42.88;;;24.65;;
54937;SDS011;52756;52.826;6.214;2023-11-18T03:10:09;41.40;;;23.95;;
54937;SDS011;52756;52.826;6.214;2023-11-18T03:12:37;43.42;;;25.55;;
54937;SDS011;52756;52.826;6.214;2023-11-18T03:15:06;64.75;;;25.20;;
54937;SDS011;52756;52.826;6.214;2023-11-18T03:17:36;48.60;;;23.02;;
54937;SDS011;52756;52.826;6.214;2023-11-18T03:20:03;61.70;;;26.05;;
54937;SDS011;52756;52.826;6.214;2023-11-18T03:22:33;54.53;;;24.73;;
54937;SDS011;52756;52.826;6.214;2023-11-18T03:24:59;53.15;;;24.77;;
54937;SDS011;52756;52.826;6.214;2023-11-18T03:27:25;97.03;;;26.25;;
54937;SDS011;52756;52.826;6.214;2023-11-18T03:29:50;81.75;;;27.02;;
54937;SDS011;52756;52.826;6.214;2023-11-18T03:32:16;43.85;;;22.02;;
54937;SDS011;52756;52.826;6.214;2023-11-18T03:34:42;42.85;;;24.65;;
54937;SDS011;52756;52.826;6.214;2023-11-18T03:37:09;96.65;;;25.92;;
54937;SDS011;52756;52.826;6.214;2023-11-18T03:39:35;52.33;;;24.52;;
54937;SDS011;52756;52.826;6.214;2023-11-18T03:42:00;43.63;;;23.17;;
54937;SDS011;52756;52.826;6.214;2023-11-18T03:44:26;65.85;;;24.73;;
54937;SDS011;52756;52.826;6.214;2023-11-18T03:46:51;47.63;;;23.55;;
54937;SDS011;52756;52.826;6.214;2023-11-18T03:49:17;49.50;;;22.85;;
54937;SDS011;52756;52.826;6.214;2023-11-18T03:51:44;34.78;;;22.42;;
54937;SDS011;52756;52.826;6.214;2023-11-18T03:54:10;49.35;;;22.58;;
54937;SDS011;52756;52.826;6.214;2023-11-18T03:56:36;53.13;;;22.85;;
54937;SDS011;52756;52.826;6.214;2023-11-18T03:59:02;37.70;;;22.45;;
54937;SDS011;52756;52.826;6.214;2023-11-18T04:01:29;48.42;;;23.25;;
54937;SDS011;52756;52.826;6.214;2023-11-18T04:03:55;49.65;;;24.65;;
54937;SDS011;52756;52.826;6.214;2023-11-18T04:06:21;48.88;;;24.48;;
54937;SDS011;52756;52.826;6.214;2023-11-18T04:08:47;59.05;;;25.35;;
54937;SDS011;52756;52.826;6.214;2023-11-18T04:11:13;55.53;;;23.75;;
54937;SDS011;52756;52.826;6.214;2023-11-18T04:13:40;76.00;;;24.55;;
54937;SDS011;52756;52.826;6.214;2023-11-18T04:16:09;39.40;;;22.60;;
54937;SDS011;52756;52.826;6.214;2023-11-18T04:18:38;88.32;;;24.15;;
54937;SDS011;52756;52.826;6.214;2023-11-18T04:21:05;36.22;;;22.60;;
54937;SDS011;52756;52.826;6.214;2023-11-18T04:23:31;78.10;;;24.55;;
54937;SDS011;52756;52.826;6.214;2023-11-18T04:25:58;65.07;;;25.98;;
54937;SDS011;52756;52.826;6.214;2023-11-18T04:28:23;54.67;;;25.02;;
54937;SDS011;52756;52.826;6.214;2023-11-18T04:30:49;47.75;;;23.95;;
54937;SDS011;52756;52.826;6.214;2023-11-18T04:33:15;38.88;;;23.58;;
54937;SDS011;52756;52.826;6.214;2023-11-18T04:35:40;71.55;;;27.17;;
54937;SDS011;52756;52.826;6.214;2023-11-18T04:38:06;61.75;;;25.63;;
54937;SDS011;52756;52.826;6.214;2023-11-18T04:40:31;41.83;;;24.10;;
54937;SDS011;52756;52.826;6.214;2023-11-18T04:42:57;37.15;;;22.70;;
54937;SDS011;52756;52.826;6.214;2023-11-18T04:45:23;63.03;;;25.52;;
54937;SDS011;52756;52.826;6.214;2023-11-18T04:47:48;108.78;;;27.63;;
54937;SDS011;52756;52.826;6.214;2023-11-18T04:50:15;81.90;;;26.40;;
54937;SDS011;52756;52.826;6.214;2023-11-18T04:52:40;70.00;;;26.08;;
54937;SDS011;52756;52.826;6.214;2023-11-18T04:55:06;90.32;;;27.60;;
54937;SDS011;52756;52.826;6.214;2023-11-18T04:57:34;58.28;;;27.20;;
54937;SDS011;52756;52.826;6.214;2023-11-18T05:00:00;50.20;;;26.95;;
54937;SDS011;52756;52.826;6.214;2023-11-18T05:02:35;107.85;;;29.00;;
54937;SDS011;52756;52.826;6.214;2023-11-18T05:05:00;53.40;;;27.65;;
54937;SDS011;52756;52.826;6.214;2023-11-18T05:07:26;98.50;;;30.13;;
54937;SDS011;52756;52.826;6.214;2023-11-18T05:09:53;83.40;;;30.15;;
54937;SDS011;52756;52.826;6.214;2023-11-18T05:12:19;58.95;;;26.80;;
54937;SDS011;52756;52.826;6.214;2023-11-18T05:14:45;56.08;;;27.58;;
54937;SDS011;52756;52.826;6.214;2023-11-18T05:17:10;51.97;;;28.02;;
54937;SDS011;52756;52.826;6.214;2023-11-18T05:19:36;60.53;;;28.23;;
54937;SDS011;52756;52.826;6.214;2023-11-18T05:22:01;75.72;;;31.40;;
54937;SDS011;52756;52.826;6.214;2023-11-18T05:24:27;70.70;;;28.55;;
54937;SDS011;52756;52.826;6.214;2023-11-18T05:26:53;52.78;;;27.80;;
54937;SDS011;52756;52.826;6.214;2023-11-18T05:29:18;57.20;;;29.08;;
54937;SDS011;52756;52.826;6.214;2023-11-18T05:31:46;90.45;;;30.83;;
54937;SDS011;52756;52.826;6.214;2023-11-18T05:34:11;82.85;;;30.67;;
54937;SDS011;52756;52.826;6.214;2023-11-18T05:36:37;96.43;;;30.95;;
54937;SDS011;52756;52.826;6.214;2023-11-18T05:39:05;92.82;;;30.90;;
54937;SDS011;52756;52.826;6.214;2023-11-18T05:41:32;66.97;;;29.98;;
54937;SDS011;52756;52.826;6.214;2023-11-18T05:44:00;89.00;;;31.98;;
54937;SDS011;52756;52.826;6.214;2023-11-18T05:46:25;67.60;;;30.33;;
54937;SDS011;52756;52.826;6.214;2023-11-18T05:48:54;83.65;;;28.92;;
54937;SDS011;52756;52.826;6.214;2023-11-18T05:51:21;71.55;;;31.02;;
54937;SDS011;52756;52.826;6.214;2023-11-18T05:53:51;71.53;;;29.73;;
54937;SDS011;52756;52.826;6.214;2023-11-18T05:56:18;117.30;;;33.83;;
54937;SDS011;52756;52.826;6.214;2023-11-18T05:58:44;97.20;;;32.38;;
54937;SDS011;52756;52.826;6.214;2023-11-18T06:01:11;64.32;;;31.20;;
54937;SDS011;52756;52.826;6.214;2023-11-18T06:03:38;84.55;;;32.35;;
54937;SDS011;52756;52.826;6.214;2023-11-18T06:06:07;73.80;;;29.85;;
54937;SDS011;52756;52.826;6.214;2023-11-18T06:08:35;85.60;;;32.97;;
54937;SDS011;52756;52.826;6.214;2023-11-18T06:11:04;66.93;;;31.55;;
54937;SDS011;52756;52.826;6.214;2023-11-18T06:13:38;83.05;;;32.75;;
54937;SDS011;52756;52.826;6.214;2023-11-18T06:16:07;63.03;;;30.23;;
54937;SDS011;52756;52.826;6.214;2023-11-18T06:18:34;66.40;;;31.38;;
54937;SDS011;52756;52.826;6.214;2023-11-18T06:21:01;97.05;;;32.47;;
54937;SDS011;52756;52.826;6.214;2023-11-18T06:23:26;72.85;;;33.17;;
54937;SDS011;52756;52.826;6.214;2023-11-18T06:25:52;70.72;;;31.27;;
54937;SDS011;52756;52.826;6.214;2023-11-18T06:28:17;95.95;;;31.88;;
54937;SDS011;52756;52.826;6.214;2023-11-18T06:30:43;92.03;;;32.65;;
54937;SDS011;52756;52.826;6.214;2023-11-18T06:33:09;77.32;;;32.53;;
54937;SDS011;52756;52.826;6.214;2023-11-18T06:35:37;81.93;;;32.42;;
54937;SDS011;52756;52.826;6.214;2023-11-18T06:38:02;83.65;;;32.03;;
54937;SDS011;52756;52.826;6.214;2023-11-18T06:40:28;68.43;;;31.00;;
54937;SDS011;52756;52.826;6.214;2023-11-18T06:42:53;81.72;;;31.67;;
54937;SDS011;52756;52.826;6.214;2023-11-18T06:45:26;93.53;;;33.97;;
54937;SDS011;52756;52.826;6.214;2023-11-18T06:47:52;92.38;;;33.67;;
54937;SDS011;52756;52.826;6.214;2023-11-18T06:50:18;84.28;;;34.25;;
54937;SDS011;52756;52.826;6.214;2023-11-18T06:52:49;80.70;;;32.85;;
54937;SDS011;52756;52.826;6.214;2023-11-18T06:55:16;88.47;;;33.47;;
54937;SDS011;52756;52.826;6.214;2023-11-18T06:57:41;77.95;;;32.08;;
54937;SDS011;52756;52.826;6.214;2023-11-18T07:00:09;91.78;;;34.92;;
54937;SDS011;52756;52.826;6.214;2023-11-18T07:02:35;87.35;;;35.13;;
54937;SDS011;52756;52.826;6.214;2023-11-18T07:05:01;89.40;;;34.45;;
54937;SDS011;52756;52.826;6.214;2023-11-18T07:07:27;98.18;;;35.95;;
54937;SDS011;52756;52.826;6.214;2023-11-18T07:09:52;98.78;;;35.97;;
54937;SDS011;52756;52.826;6.214;2023-11-18T07:12:18;94.47;;;35.88;;
54937;SDS011;52756;52.826;6.214;2023-11-18T07:14:47;89.15;;;35.15;;
54937;SDS011;52756;52.826;6.214;2023-11-18T07:17:13;98.30;;;36.13;;
54937;SDS011;52756;52.826;6.214;2023-11-18T07:19:39;102.85;;;35.78;;
54937;SDS011;52756;52.826;6.214;2023-11-18T07:22:05;82.30;;;34.40;;
54937;SDS011;52756;52.826;6.214;2023-11-18T07:24:32;93.70;;;37.65;;
54937;SDS011;52756;52.826;6.214;2023-11-18T07:26:57;97.85;;;37.80;;
54937;SDS011;52756;52.826;6.214;2023-11-18T07:29:25;92.20;;;37.28;;
54937;SDS011;52756;52.826;6.214;2023-11-18T07:31:52;88.25;;;37.17;;
54937;SDS011;52756;52.826;6.214;2023-11-18T07:34:19;96.65;;;37.95;;
54937;SDS011;52756;52.826;6.214;2023-11-18T07:36:46;81.13;;;35.13;;
54937;SDS011;52756;52.826;6.214;2023-11-18T07:39:13;97.15;;;37.75;;
54937;SDS011;52756;52.826;6.214;2023-11-18T07:41:49;92.72;;;37.47;;
54937;SDS011;52756;52.826;6.214;2023-11-18T07:44:14;98.47;;;37.55;;
54937;SDS011;52756;52.826;6.214;2023-11-18T07:46:41;102.70;;;38.33;;
54937;SDS011;52756;52.826;6.214;2023-11-18T07:49:07;98.32;;;39.38;;
54937;SDS011;52756;52.826;6.214;2023-11-18T07:51:34;95.07;;;38.28;;
54937;SDS011;52756;52.826;6.214;2023-11-18T07:53:59;100.47;;;38.30;;
54937;SDS011;52756;52.826;6.214;2023-11-18T07:56:25;106.15;;;38.90;;
54937;SDS011;52756;52.826;6.214;2023-11-18T07:58:52;105.10;;;37.50;;
54937;SDS011;52756;52.826;6.214;2023-11-18T08:01:19;101.88;;;38.95;;
54937;SDS011;52756;52.826;6.214;2023-11-18T08:03:46;110.70;;;39.97;;
54937;SDS011;52756;52.826;6.214;2023-11-18T08:06:13;107.85;;;39.47;;
54937;SDS011;52756;52.826;6.214;2023-11-18T08:08:38;106.93;;;39.88;;
54937;SDS011;52756;52.826;6.214;2023-11-18T08:11:05;118.90;;;40.78;;
54937;SDS011;52756;52.826;6.214;2023-11-18T08:13:30;100.38;;;37.50;;
54937;SDS011;52756;52.826;6.214;2023-11-18T08:15:56;108.82;;;38.63;;
54937;SDS011;52756;52.826;6.214;2023-11-18T08:18:25;114.45;;;38.97;;
54937;SDS011;52756;52.826;6.214;2023-11-18T08:20:52;106.20;;;37.50;;
54937;SDS011;52756;52.826;6.214;2023-11-18T08:23:18;105.30;;;37.95;;
54937;SDS011;52756;52.826;6.214;2023-11-18T08:25:44;114.97;;;40.08;;
54937;SDS011;52756;52.826;6.214;2023-11-18T08:28:11;114.50;;;39.55;;
54937;SDS011;52756;52.826;6.214;2023-11-18T08:30:37;110.57;;;39.03;;
54937;SDS011;52756;52.826;6.214;2023-11-18T08:33:04;101.78;;;39.05;;
54937;SDS011;52756;52.826;6.214;2023-11-18T08:35:33;103.90;;;38.83;;
54937;SDS011;52756;52.826;6.214;2023-11-18T08:38:02;97.45;;;37.83;;
54937;SDS011;52756;52.826;6.214;2023-11-18T08:40:29;99.75;;;38.08;;
54937;SDS011;52756;52.826;6.214;2023-11-18T08:42:55;93.60;;;37.30;;
54937;SDS011;52756;52.826;6.214;2023-11-18T08:45:25;103.05;;;40.13;;
54937;SDS011;52756;52.826;6.214;2023-11-18T08:47:57;102.47;;;39.25;;
54937;SDS011;52756;52.826;6.214;2023-11-18T08:50:32;98.95;;;38.60;;
54937;SDS011;52756;52.826;6.214;2023-11-18T08:52:58;92.30;;;40.03;;
54937;SDS011;52756;52.826;6.214;2023-11-18T08:55:25;97.97;;;39.78;;
54937;SDS011;52756;52.826;6.214;2023-11-18T08:58:04;85.03;;;37.47;;
54937;SDS011;52756;52.826;6.214;2023-11-18T09:00:41;96.30;;;39.38;;
54937;SDS011;52756;52.826;6.214;2023-11-18T09:03:17;104.03;;;40.92;;
54937;SDS011;52756;52.826;6.214;2023-11-18T09:05:49;99.47;;;40.22;;
54937;SDS011;52756;52.826;6.214;2023-11-18T09:08:23;97.97;;;41.85;;
54937;SDS011;52756;52.826;6.214;2023-11-18T09:10:50;97.03;;;40.55;;
54937;SDS011;52756;52.826;6.214;2023-11-18T09:13:19;92.45;;;40.55;;
54937;SDS011;52756;52.826;6.214;2023-11-18T09:15:46;88.07;;;40.33;;
54937;SDS011;52756;52.826;6.214;2023-11-18T09:18:13;93.85;;;39.10;;
54937;SDS011;52756;52.826;6.214;2023-11-18T09:20:39;99.82;;;40.65;;
54937;SDS011;52756;52.826;6.214;2023-11-18T09:23:05;95.28;;;40.47;;
54937;SDS011;52756;52.826;6.214;2023-11-18T09:25:31;92.18;;;38.60;;
54937;SDS011;52756;52.826;6.214;2023-11-18T09:27:58;92.68;;;40.20;;
54937;SDS011;52756;52.826;6.214;2023-11-18T09:30:23;85.15;;;38.00;;
54937;SDS011;52756;52.826;6.214;2023-11-18T09:32:49;85.32;;;38.30;;
54937;SDS011;52756;52.826;6.214;2023-11-18T09:35:16;90.70;;;38.78;;
54937;SDS011;52756;52.826;6.214;2023-11-18T09:37:44;93.13;;;41.22;;
54937;SDS011;52756;52.826;6.214;2023-11-18T09:40:14;94.18;;;39.72;;
54937;SDS011;52756;52.826;6.214;2023-11-18T09:42:43;84.15;;;36.95;;
54937;SDS011;52756;52.826;6.214;2023-11-18T09:45:09;82.68;;;35.95;;
54937;SDS011;52756;52.826;6.214;2023-11-18T09:47:44;78.28;;;36.50;;
54937;SDS011;52756;52.826;6.214;2023-11-18T09:50:16;75.07;;;34.33;;
54937;SDS011;52756;52.826;6.214;2023-11-18T09:52:47;77.45;;;36.63;;
54937;SDS011;52756;52.826;6.214;2023-11-18T09:55:29;74.57;;;34.63;;
54937;SDS011;52756;52.826;6.214;2023-11-18T09:58:06;86.57;;;34.67;;
54937;SDS011;52756;52.826;6.214;2023-11-18T10:00:38;83.18;;;35.58;;
54937;SDS011;52756;52.826;6.214;2023-11-18T10:03:07;77.53;;;34.95;;
54937;SDS011;52756;52.826;6.214;2023-11-18T10:05:40;77.03;;;34.55;;
54937;SDS011;52756;52.826;6.214;2023-11-18T10:08:07;76.40;;;34.28;;
54937;SDS011;52756;52.826;6.214;2023-11-18T10:10:33;76.43;;;32.17;;
54937;SDS011;52756;52.826;6.214;2023-11-18T10:13:02;73.10;;;35.63;;
54937;SDS011;52756;52.826;6.214;2023-11-18T10:15:46;84.38;;;37.17;;
54937;SDS011;52756;52.826;6.214;2023-11-18T10:18:14;89.90;;;35.88;;
54937;SDS011;52756;52.826;6.214;2023-11-18T10:20:47;72.38;;;34.25;;
54937;SDS011;52756;52.826;6.214;2023-11-18T10:23:21;85.18;;;36.03;;
54937;SDS011;52756;52.826;6.214;2023-11-18T10:25:48;79.20;;;35.67;;
54937;SDS011;52756;52.826;6.214;2023-11-18T10:28:24;76.65;;;35.00;;
54937;SDS011;52756;52.826;6.214;2023-11-18T10:30:58;90.45;;;36.85;;
54937;SDS011;52756;52.826;6.214;2023-11-18T10:33:43;89.70;;;37.45;;
54937;SDS011;52756;52.826;6.214;2023-11-18T10:36:22;82.15;;;37.53;;
54937;SDS011;52756;52.826;6.214;2023-11-18T10:38:48;91.20;;;39.80;;
54937;SDS011;52756;52.826;6.214;2023-11-18T10:41:15;90.45;;;39.05;;
54937;SDS011;52756;52.826;6.214;2023-11-18T10:43:44;88.53;;;38.17;;
54937;SDS011;52756;52.826;6.214;2023-11-18T10:46:11;88.72;;;39.67;;
54937;SDS011;52756;52.826;6.214;2023-11-18T10:48:47;91.53;;;39.72;;
54937;SDS011;52756;52.826;6.214;2023-11-18T10:51:14;98.38;;;41.20;;
54937;SDS011;52756;52.826;6.214;2023-11-18T10:53:52;96.53;;;41.38;;
54937;SDS011;52756;52.826;6.214;2023-11-18T10:56:22;94.05;;;41.10;;
54937;SDS011;52756;52.826;6.214;2023-11-18T10:58:58;91.05;;;40.35;;
54937;SDS011;52756;52.826;6.214;2023-11-18T11:01:31;90.38;;;42.13;;
54937;SDS011;52756;52.826;6.214;2023-11-18T11:03:58;88.13;;;42.13;;
54937;SDS011;52756;52.826;6.214;2023-11-18T11:06:24;89.28;;;39.83;;
54937;SDS011;52756;52.826;6.214;2023-11-18T11:08:54;87.93;;;40.22;;
54937;SDS011;52756;52.826;6.214;2023-11-18T11:11:21;81.75;;;41.13;;
54937;SDS011;52756;52.826;6.214;2023-11-18T11:13:55;84.15;;;38.85;;
54937;SDS011;52756;52.826;6.214;2023-11-18T11:18:51;81.30;;;37.75;;
54937;SDS011;52756;52.826;6.214;2023-11-18T11:21:20;67.47;;;36.67;;
54937;SDS011;52756;52.826;6.214;2023-11-18T11:23:53;69.55;;;36.67;;
54937;SDS011;52756;52.826;6.214;2023-11-18T11:26:28;70.38;;;37.03;;
54937;SDS011;52756;52.826;6.214;2023-11-18T11:29:32;62.33;;;33.72;;
54937;SDS011;52756;52.826;6.214;2023-11-18T11:32:22;62.22;;;34.00;;
54937;SDS011;52756;52.826;6.214;2023-11-18T11:35:00;54.42;;;30.58;;
54937;SDS011;52756;52.826;6.214;2023-11-18T11:37:33;57.20;;;30.90;;
54937;SDS011;52756;52.826;6.214;2023-11-18T11:40:01;53.25;;;29.45;;
54937;SDS011;52756;52.826;6.214;2023-11-18T11:42:34;56.25;;;30.02;;
54937;SDS011;52756;52.826;6.214;2023-11-18T11:45:00;53.20;;;26.95;;
54937;SDS011;52756;52.826;6.214;2023-11-18T11:47:27;48.58;;;27.27;;
54937;SDS011;52756;52.826;6.214;2023-11-18T11:52:40;47.45;;;26.02;;
54937;SDS011;52756;52.826;6.214;2023-11-18T11:55:15;47.50;;;25.10;;
54937;SDS011;52756;52.826;6.214;2023-11-18T11:57:53;47.80;;;25.25;;
54937;SDS011;52756;52.826;6.214;2023-11-18T12:00:23;43.50;;;24.25;;
54937;SDS011;52756;52.826;6.214;2023-11-18T12:02:51;41.53;;;23.15;;
54937;SDS011;52756;52.826;6.214;2023-11-18T12:05:23;41.10;;;22.27;;
54937;SDS011;52756;52.826;6.214;2023-11-18T12:07:52;39.80;;;22.40;;
54937;SDS011;52756;52.826;6.214;2023-11-18T12:10:21;42.97;;;23.23;;
54937;SDS011;52756;52.826;6.214;2023-11-18T12:13:06;41.05;;;21.45;;
54937;SDS011;52756;52.826;6.214;2023-11-18T12:15:51;38.45;;;20.65;;
54937;SDS011;52756;52.826;6.214;2023-11-18T12:18:29;39.35;;;20.35;;
54937;SDS011;52756;52.826;6.214;2023-11-18T12:20:59;41.25;;;20.33;;
54937;SDS011;52756;52.826;6.214;2023-11-18T12:23:28;38.25;;;19.92;;
54937;SDS011;52756;52.826;6.214;2023-11-18T12:25:56;38.20;;;20.40;;
54937;SDS011;52756;52.826;6.214;2023-11-18T12:28:27;37.85;;;20.30;;
54937;SDS011;52756;52.826;6.214;2023-11-18T12:31:16;39.47;;;19.85;;
54937;SDS011;52756;52.826;6.214;2023-11-18T12:34:05;40.92;;;20.73;;
54937;SDS011;52756;52.826;6.214;2023-11-18T12:36:44;32.40;;;17.63;;
54937;SDS011;52756;52.826;6.214;2023-11-18T12:39:28;39.67;;;20.35;;
54937;SDS011;52756;52.826;6.214;2023-11-18T12:42:06;34.10;;;19.27;;
54937;SDS011;52756;52.826;6.214;2023-11-18T12:47:57;31.52;;;18.23;;
54937;SDS011;52756;52.826;6.214;2023-11-18T12:50:37;34.80;;;18.77;;
54937;SDS011;52756;52.826;6.214;2023-11-18T12:53:06;31.85;;;18.25;;
54937;SDS011;52756;52.826;6.214;2023-11-18T12:55:32;32.13;;;18.92;;
54937;SDS011;52756;52.826;6.214;2023-11-18T12:57:59;33.83;;;19.35;;
54937;SDS011;52756;52.826;6.214;2023-11-18T13:00:25;32.15;;;17.80;;
54937;SDS011;52756;52.826;6.214;2023-11-18T13:02:59;29.67;;;17.50;;
54937;SDS011;52756;52.826;6.214;2023-11-18T13:05:25;31.75;;;18.83;;
54937;SDS011;52756;52.826;6.214;2023-11-18T13:07:55;34.53;;;18.38;;
54937;SDS011;52756;52.826;6.214;2023-11-18T13:10:21;31.75;;;19.02;;
54937;SDS011;52756;52.826;6.214;2023-11-18T13:12:47;33.30;;;18.15;;
54937;SDS011;52756;52.826;6.214;2023-11-18T13:15:14;34.53;;;18.10;;
54937;SDS011;52756;52.826;6.214;2023-11-18T13:17:56;33.45;;;17.80;;
54937;SDS011;52756;52.826;6.214;2023-11-18T13:20:31;29.98;;;17.55;;
54937;SDS011;52756;52.826;6.214;2023-11-18T13:23:00;29.88;;;17.02;;
54937;SDS011;52756;52.826;6.214;2023-11-18T13:25:36;31.10;;;17.83;;
54937;SDS011;52756;52.826;6.214;2023-11-18T13:28:09;30.05;;;17.40;;
54937;SDS011;52756;52.826;6.214;2023-11-18T13:30:35;34.22;;;16.83;;
54937;SDS011;52756;52.826;6.214;2023-11-18T13:33:01;29.10;;;17.13;;
54937;SDS011;52756;52.826;6.214;2023-11-18T13:35:27;26.42;;;16.98;;
54937;SDS011;52756;52.826;6.214;2023-11-18T13:37:53;30.00;;;16.52;;
54937;SDS011;52756;52.826;6.214;2023-11-18T13:40:20;30.73;;;18.45;;
54937;SDS011;52756;52.826;6.214;2023-11-18T13:42:45;31.60;;;17.10;;
54937;SDS011;52756;52.826;6.214;2023-11-18T13:45:12;36.47;;;17.98;;
54937;SDS011;52756;52.826;6.214;2023-11-18T13:47:51;26.75;;;16.40;;
54937;SDS011;52756;52.826;6.214;2023-11-18T13:50:20;27.77;;;16.60;;
54937;SDS011;52756;52.826;6.214;2023-11-18T13:52:46;26.38;;;16.17;;
54937;SDS011;52756;52.826;6.214;2023-11-18T13:55:14;31.15;;;17.58;;
54937;SDS011;52756;52.826;6.214;2023-11-18T13:57:52;36.25;;;17.75;;
54937;SDS011;52756;52.826;6.214;2023-11-18T14:00:26;26.55;;;16.55;;
54937;SDS011;52756;52.826;6.214;2023-11-18T14:02:54;27.75;;;17.48;;
54937;SDS011;52756;52.826;6.214;2023-11-18T14:05:21;28.95;;;16.25;;
54937;SDS011;52756;52.826;6.214;2023-11-18T14:07:49;30.08;;;17.13;;
54937;SDS011;52756;52.826;6.214;2023-11-18T14:10:21;25.42;;;16.05;;
54937;SDS011;52756;52.826;6.214;2023-11-18T14:13:02;24.83;;;15.57;;
54937;SDS011;52756;52.826;6.214;2023-11-18T14:15:37;29.67;;;16.00;;
54937;SDS011;52756;52.826;6.214;2023-11-18T14:18:03;24.75;;;15.48;;
54937;SDS011;52756;52.826;6.214;2023-11-18T14:20:29;23.58;;;15.65;;
54937;SDS011;52756;52.826;6.214;2023-11-18T14:22:56;25.25;;;15.35;;
54937;SDS011;52756;52.826;6.214;2023-11-18T14:25:23;22.85;;;14.80;;
54937;SDS011;52756;52.826;6.214;2023-11-18T14:27:49;28.38;;;14.80;;
54937;SDS011;52756;52.826;6.214;2023-11-18T14:30:16;28.30;;;15.38;;
54937;SDS011;52756;52.826;6.214;2023-11-18T14:32:42;23.25;;;13.80;;
54937;SDS011;52756;52.826;6.214;2023-11-18T14:35:08;21.13;;;14.35;;
54937;SDS011;52756;52.826;6.214;2023-11-18T14:37:38;27.42;;;15.07;;
54937;SDS011;52756;52.826;6.214;2023-11-18T14:40:10;25.52;;;13.60;;
54937;SDS011;52756;52.826;6.214;2023-11-18T14:42:43;20.90;;;14.18;;
54937;SDS011;52756;52.826;6.214;2023-11-18T14:45:10;21.00;;;12.13;;
54937;SDS011;52756;52.826;6.214;2023-11-18T14:47:38;18.70;;;12.25;;
54937;SDS011;52756;52.826;6.214;2023-11-18T14:50:10;21.80;;;12.57;;
54937;SDS011;52756;52.826;6.214;2023-11-18T14:52:48;19.65;;;12.60;;
54937;SDS011;52756;52.826;6.214;2023-11-18T14:55:27;18.90;;;12.00;;
54937;SDS011;52756;52.826;6.214;2023-11-18T14:57:54;18.02;;;11.82;;
54937;SDS011;52756;52.826;6.214;2023-11-18T15:00:20;16.88;;;11.45;;
54937;SDS011;52756;52.826;6.214;2023-11-18T15:02:53;16.17;;;10.93;;
54937;SDS011;52756;52.826;6.214;2023-11-18T15:05:22;15.50;;;10.93;;
54937;SDS011;52756;52.826;6.214;2023-11-18T15:07:52;14.15;;;10.00;;
54937;SDS011;52756;52.826;6.214;2023-11-18T15:10:23;15.63;;;10.77;;
54937;SDS011;52756;52.826;6.214;2023-11-18T15:12:50;17.70;;;11.05;;
54937;SDS011;52756;52.826;6.214;2023-11-18T15:15:23;14.30;;;10.88;;
54937;SDS011;52756;52.826;6.214;2023-11-18T15:17:56;16.15;;;10.10;;
54937;SDS011;52756;52.826;6.214;2023-11-18T15:20:23;19.33;;;11.07;;
54937;SDS011;52756;52.826;6.214;2023-11-18T15:22:50;17.98;;;10.57;;
54937;SDS011;52756;52.826;6.214;2023-11-18T15:25:16;17.98;;;11.88;;
54937;SDS011;52756;52.826;6.214;2023-11-18T15:27:45;16.98;;;10.93;;
54937;SDS011;52756;52.826;6.214;2023-11-18T15:30:16;16.02;;;10.60;;
54937;SDS011;52756;52.826;6.214;2023-11-18T15:32:42;14.10;;;11.30;;
54937;SDS011;52756;52.826;6.214;2023-11-18T15:35:09;17.58;;;11.43;;
54937;SDS011;52756;52.826;6.214;2023-11-18T15:37:37;15.52;;;10.48;;
54937;SDS011;52756;52.826;6.214;2023-11-18T15:40:07;16.70;;;10.05;;
54937;SDS011;52756;52.826;6.214;2023-11-18T15:42:38;13.52;;;7.93;;
54937;SDS011;52756;52.826;6.214;2023-11-18T15:45:12;15.60;;;10.75;;